Ana Sayfa
METAR-TAF:

METAR-TAF

Havaalanları :

Russian Mission, Alaska, Amerika Birleşik Devletleri

Enlem: 61-46-30N, Boylam: 161-19-10W, yükseklik: 16 m

Güncel hava durumu gözlemi

Rapor saat 04:56 UTC de 32 dakika önce yapıldı.
Rüzgar doğu/kuzeydoğudan 5 kt
Sıcaklık -3°C
Nem 54%
Basınç 1022 hPa
Görüş mesafesi: 16.1 km
Açık gökyüzü

METAR: PARS 010456Z AUTO 07005KT 10SM CLR M03/M11 A3018 RMK AO2 SLP223 T10281106 FZRANO $

Saat: 21:28 (05:28 UTC)


TAF: eksik

4.000'den fazla havaalanı için hava durumu gözlemleri ve tahminleri (METAR ve TAF raporları).

Kullanılabilir istasyonlar harita üzerinde sarı ve kırmızı noktalarla gösterilir.

İstasyonun adını görmek için fareyi noktanın üzerinde gezdirin.

Sonrasında hava gözlem ve tahminlerini görmek için tıklayın.

Haritayı değiştirmek için: yaklaştırmak için siyah artı işaretli yeşil düğmeye ve uzaklaştırmak için de eksi işaretli düğmeye hızla tıklayın; bitişik haritalar için yeşil okları kullanın.


METAR-TAF: